Time;durP1;ratioP1;P1;durP2;ratioP2;P2;SDS_P1;SDS_P2;PMS_P1;PMS_P2;Temp;Humidity;BMP_temperature;BMP_pressure;BME280_temperature;BME280_humidity;BME280_pressure;Samples;Min_cycle;Max_cycle;Signal;HPM_P1;HPM_P2
2023/07/31 00:00:55;;;;;;;;;2.00;2.00;;;;;;;;5051657;28;8914;-89
2023/07/31 00:03:22;;;;;;;;;1.80;1.80;;;;;;;;5051856;28;8874;-90
2023/07/31 00:05:49;;;;;;;;;2.60;2.60;;;;;;;;5052391;28;9027;-88
2023/07/31 00:08:17;;;;;;;;;1.80;1.80;;;;;;;;5052991;28;8863;-89
2023/07/31 00:10:44;;;;;;;;;0.80;0.80;;;;;;;;5055854;28;8887;-87
2023/07/31 00:13:11;;;;;;;;;2.00;2.00;;;;;;;;5057327;28;8851;-87
2023/07/31 00:15:40;;;;;;;;;5.00;3.60;;;;;;;;5055727;28;8866;-86
2023/07/31 00:18:07;;;;;;;;;1.00;1.00;;;;;;;;5054307;28;8847;-86
2023/07/31 00:20:34;;;;;;;;;3.00;2.00;;;;;;;;5052232;28;8871;-87
2023/07/31 00:23:03;;;;;;;;;1.80;1.80;;;;;;;;5052002;28;8843;-90
2023/07/31 00:25:30;;;;;;;;;2.00;2.00;;;;;;;;5051526;28;8985;-88
2023/07/31 00:27:57;;;;;;;;;2.80;2.80;;;;;;;;5051528;28;8920;-89
2023/07/31 00:30:26;;;;;;;;;2.00;2.00;;;;;;;;5052909;28;8819;-90
2023/07/31 00:32:56;;;;;;;;;2.60;2.00;;;;;;;;5052312;28;8977;-89
2023/07/31 00:35:23;;;;;;;;;2.80;2.80;;;;;;;;5050658;28;8882;-92
2023/07/31 00:37:50;;;;;;;;;3.20;3.20;;;;;;;;5051105;28;8843;-88
2023/07/31 00:40:18;;;;;;;;;1.80;1.80;;;;;;;;5051347;28;8854;-88
2023/07/31 00:42:45;;;;;;;;;2.20;2.20;;;;;;;;5050983;28;9005;-91
2023/07/31 00:45:12;;;;;;;;;1.80;1.80;;;;;;;;5051482;28;8851;-90
2023/07/31 00:47:40;;;;;;;;;0.80;0.80;;;;;;;;5058279;28;8863;-89
2023/07/31 00:50:10;;;;;;;;;1.80;1.80;;;;;;;;5057934;28;8862;-89
2023/07/31 00:52:37;;;;;;;;;3.00;3.00;;;;;;;;5057291;28;8871;-87
2023/07/31 00:55:05;;;;;;;;;1.80;1.80;;;;;;;;5051281;28;8835;-89
2023/07/31 00:57:33;;;;;;;;;1.40;1.40;;;;;;;;5053288;28;8893;-89
2023/07/31 01:00:01;;;;;;;;;3.20;3.20;;;;;;;;5051333;28;8859;-90
2023/07/31 01:02:28;;;;;;;;;1.60;1.60;;;;;;;;5050528;28;8800;-90
2023/07/31 01:04:56;;;;;;;;;3.20;2.80;;;;;;;;5050654;28;8867;-88
2023/07/31 01:07:34;;;;;;;;;2.60;2.00;;;;;;;;5050934;28;8838;-86
2023/07/31 01:10:08;;;;;;;;;1.20;1.20;;;;;;;;5050239;28;9652;-87
2023/07/31 01:12:37;;;;;;;;;2.60;2.60;;;;;;;;5050532;28;9219;-87
2023/07/31 01:15:06;;;;;;;;;3.60;2.20;;;;;;;;5050722;28;8839;-86
2023/07/31 01:17:33;;;;;;;;;2.00;1.80;;;;;;;;5051197;28;8851;-90
2023/07/31 01:20:03;;;;;;;;;2.40;2.40;;;;;;;;5051779;28;8961;-89
2023/07/31 01:22:43;;;;;;;;;2.20;2.20;;;;;;;;5054252;28;8920;-91
2023/07/31 01:25:21;;;;;;;;;3.00;3.00;;;;;;;;5058372;28;8871;-87
2023/07/31 01:27:58;;;;;;;;;4.20;2.80;;;;;;;;5056795;28;8990;-91
2023/07/31 01:30:29;;;;;;;;;3.80;3.80;;;;;;;;5053615;28;8853;-91
2023/07/31 01:32:57;;;;;;;;;2.80;2.80;;;;;;;;5051020;28;9630;-89
2023/07/31 01:35:25;;;;;;;;;3.20;2.00;;;;;;;;5050648;28;8933;-89
2023/07/31 01:37:54;;;;;;;;;2.00;2.00;;;;;;;;5050657;28;8869;-90
2023/07/31 01:40:21;;;;;;;;;3.20;3.20;;;;;;;;5050623;28;8863;-93
2023/07/31 01:42:50;;;;;;;;;3.60;2.80;;;;;;;;5051623;28;9031;-89
2023/07/31 01:45:17;;;;;;;;;2.00;2.00;;;;;;;;5054894;28;8977;-91
2023/07/31 01:47:45;;;;;;;;;1.80;1.80;;;;;;;;5055372;28;8855;-91
2023/07/31 01:50:12;;;;;;;;;5.00;4.00;;;;;;;;5054653;28;8981;-89
2023/07/31 01:52:40;;;;;;;;;1.80;1.80;;;;;;;;5055683;28;8875;-89
2023/07/31 01:55:08;;;;;;;;;2.80;2.80;;;;;;;;5053383;28;9009;-90
2023/07/31 01:57:35;;;;;;;;;1.80;1.80;;;;;;;;5053891;28;8847;-91
2023/07/31 02:00:05;;;;;;;;;4.00;2.40;;;;;;;;5059639;28;8889;-89
2023/07/31 02:02:32;;;;;;;;;2.60;2.60;;;;;;;;5059925;28;8807;-87
2023/07/31 02:04:59;;;;;;;;;3.20;2.00;;;;;;;;5056958;28;8859;-87
2023/07/31 02:07:27;;;;;;;;;2.00;2.00;;;;;;;;5054548;28;8885;-90
2023/07/31 02:09:54;;;;;;;;;0.80;0.80;;;;;;;;5054413;28;8969;-90
2023/07/31 02:12:21;;;;;;;;;3.20;3.20;;;;;;;;5053939;28;8867;-89
2023/07/31 02:14:49;;;;;;;;;2.60;2.60;;;;;;;;5053024;28;8839;-90
2023/07/31 02:17:17;;;;;;;;;3.20;2.80;;;;;;;;5053678;28;8851;-90
2023/07/31 02:19:45;;;;;;;;;2.00;2.00;;;;;;;;5054045;28;8867;-92
2023/07/31 02:22:15;;;;;;;;;2.60;1.80;;;;;;;;5053941;28;9005;-91
2023/07/31 02:24:45;;;;;;;;;1.20;1.20;;;;;;;;5053999;28;8855;-90
2023/07/31 02:27:12;;;;;;;;;2.20;2.20;;;;;;;;5054936;28;8905;-86
2023/07/31 02:29:39;;;;;;;;;2.00;2.00;;;;;;;;5052327;28;8869;-90
2023/07/31 02:32:07;;;;;;;;;1.60;1.60;;;;;;;;5053246;28;8815;-91
2023/07/31 02:34:36;;;;;;;;;1.80;1.80;;;;;;;;5056097;28;8859;-90
2023/07/31 02:37:03;;;;;;;;;1.20;1.20;;;;;;;;5063794;28;8981;-90
2023/07/31 02:39:30;;;;;;;;;2.80;1.60;;;;;;;;5063721;28;8851;-92
2023/07/31 02:41:57;;;;;;;;;3.00;1.20;;;;;;;;5059917;28;8905;-90
2023/07/31 02:44:25;;;;;;;;;1.60;1.60;;;;;;;;5053647;28;8881;-91
2023/07/31 02:46:52;;;;;;;;;2.00;1.80;;;;;;;;5053446;28;8858;-91
2023/07/31 02:49:19;;;;;;;;;2.00;2.00;;;;;;;;5053601;28;9586;-92
2023/07/31 02:51:48;;;;;;;;;1.80;1.80;;;;;;;;5052172;28;8873;-91
2023/07/31 02:54:15;;;;;;;;;1.20;1.20;;;;;;;;5052043;28;8873;-91
2023/07/31 02:56:45;;;;;;;;;2.20;2.00;;;;;;;;5054403;28;9013;-90
2023/07/31 02:59:13;;;;;;;;;2.40;2.40;;;;;;;;5053819;28;8989;-90
2023/07/31 03:01:40;;;;;;;;;4.40;2.80;;;;;;;;5052293;28;8919;-88
2023/07/31 03:04:07;;;;;;;;;2.60;1.20;;;;;;;;5052706;28;8851;-90
2023/07/31 03:06:35;;;;;;;;;2.00;2.00;;;;;;;;5053160;28;8981;-91
2023/07/31 03:09:03;;;;;;;;;2.00;2.00;;;;;;;;5052281;28;9645;-89
2023/07/31 03:11:31;;;;;;;;;2.00;2.00;;;;;;;;5055605;28;8855;-90
2023/07/31 03:13:58;;;;;;;;;3.60;2.00;;;;;;;;5060215;28;9772;-92
2023/07/31 03:16:25;;;;;;;;;2.00;2.00;;;;;;;;5059975;28;8966;-92
2023/07/31 03:18:52;;;;;;;;;2.80;2.80;;;;;;;;5057632;28;8952;-91
2023/07/31 03:21:20;;;;;;;;;2.60;1.80;;;;;;;;5054414;28;8870;-92
2023/07/31 03:23:47;;;;;;;;;1.00;1.00;;;;;;;;5055170;28;8895;-93
2023/07/31 03:26:16;;;;;;;;;2.80;2.80;;;;;;;;5056273;28;8852;-92
2023/07/31 03:28:43;;;;;;;;;2.00;2.00;;;;;;;;5056831;28;8881;-91
2023/07/31 03:31:12;;;;;;;;;1.20;1.20;;;;;;;;5054301;28;8786;-91
2023/07/31 03:33:39;;;;;;;;;1.20;1.20;;;;;;;;5055397;28;8846;-90
2023/07/31 03:36:07;;;;;;;;;3.00;3.00;;;;;;;;5053680;28;8858;-89
2023/07/31 03:38:35;;;;;;;;;3.20;2.40;;;;;;;;5051936;28;9710;-88
2023/07/31 03:41:02;;;;;;;;;0.00;0.00;;;;;;;;5052082;28;8876;-86
2023/07/31 03:43:31;;;;;;;;;3.00;2.60;;;;;;;;5051781;28;8858;-87
2023/07/31 03:45:58;;;;;;;;;2.00;2.00;;;;;;;;5050817;28;8910;-88
2023/07/31 03:48:25;;;;;;;;;1.00;1.00;;;;;;;;5056718;28;8875;-88
2023/07/31 03:50:52;;;;;;;;;1.00;1.00;;;;;;;;5052314;28;8847;-90
2023/07/31 03:53:20;;;;;;;;;1.60;1.60;;;;;;;;5052405;28;8855;-87
2023/07/31 03:55:47;;;;;;;;;2.20;1.60;;;;;;;;5053919;28;9729;-90
2023/07/31 03:58:14;;;;;;;;;1.60;1.60;;;;;;;;5053681;28;9654;-93
2023/07/31 04:00:43;;;;;;;;;2.00;2.00;;;;;;;;5051662;28;8793;-92
2023/07/31 04:03:10;;;;;;;;;0.80;0.80;;;;;;;;5052051;28;8865;-94
2023/07/31 04:05:40;;;;;;;;;1.20;1.20;;;;;;;;5051135;28;8851;-91
2023/07/31 04:08:08;;;;;;;;;1.00;1.00;;;;;;;;5051528;28;8879;-94
2023/07/31 04:10:35;;;;;;;;;1.00;1.00;;;;;;;;5051427;28;8866;-93
2023/07/31 04:13:02;;;;;;;;;1.20;0.80;;;;;;;;5049984;28;8855;-90
2023/07/31 04:15:29;;;;;;;;;0.80;0.80;;;;;;;;5050987;28;8897;-94
2023/07/31 04:17:58;;;;;;;;;1.00;1.00;;;;;;;;5050706;28;8873;-93
2023/07/31 04:20:25;;;;;;;;;2.00;2.00;;;;;;;;5050850;28;8869;-92
2023/07/31 04:22:53;;;;;;;;;5.40;2.00;;;;;;;;5052361;28;8867;-92
2023/07/31 04:25:20;;;;;;;;;2.00;2.00;;;;;;;;5058487;28;8867;-94
2023/07/31 04:27:47;;;;;;;;;2.00;1.00;;;;;;;;5057661;28;8867;-92
2023/07/31 04:30:15;;;;;;;;;4.40;2.80;;;;;;;;5056370;28;8856;-93
2023/07/31 04:32:44;;;;;;;;;1.40;0.80;;;;;;;;5051536;28;8967;-91
2023/07/31 04:35:13;;;;;;;;;1.00;1.00;;;;;;;;5051119;28;8912;-92
2023/07/31 04:37:41;;;;;;;;;2.20;2.20;;;;;;;;5050643;28;8863;-91
2023/07/31 04:40:09;;;;;;;;;1.00;1.00;;;;;;;;5050638;28;8855;-91
2023/07/31 04:42:36;;;;;;;;;1.40;1.40;;;;;;;;5051989;28;8855;-90
2023/07/31 04:45:04;;;;;;;;;3.40;1.80;;;;;;;;5054962;28;9608;-91
2023/07/31 04:47:32;;;;;;;;;1.80;1.00;;;;;;;;5052479;28;8871;-91
2023/07/31 04:49:59;;;;;;;;;2.80;2.00;;;;;;;;5050653;28;8863;-92
2023/07/31 04:52:28;;;;;;;;;2.00;2.00;;;;;;;;5050809;28;8966;-91
2023/07/31 04:54:55;;;;;;;;;0.80;0.80;;;;;;;;5050062;28;8892;-94
2023/07/31 04:57:22;;;;;;;;;3.00;1.40;;;;;;;;5051824;28;9013;-93
2023/07/31 04:59:50;;;;;;;;;0.00;0.00;;;;;;;;5051552;28;8881;-90
2023/07/31 05:02:17;;;;;;;;;1.00;1.00;;;;;;;;5055026;28;8875;-93
2023/07/31 05:04:45;;;;;;;;;2.00;2.00;;;;;;;;5056926;28;8870;-94
2023/07/31 05:07:12;;;;;;;;;1.00;1.00;;;;;;;;5058215;28;8878;-93
2023/07/31 05:09:41;;;;;;;;;2.20;2.20;;;;;;;;5057038;28;9514;-95
2023/07/31 05:12:09;;;;;;;;;0.60;0.60;;;;;;;;5056915;28;8877;-94
2023/07/31 05:14:36;;;;;;;;;3.50;3.00;;;;;;;;5052265;28;9622;-92
2023/07/31 05:17:04;;;;;;;;;1.40;1.00;;;;;;;;5050444;28;8871;-88
2023/07/31 05:19:31;;;;;;;;;2.25;2.25;;;;;;;;5052759;28;8879;-91
2023/07/31 05:21:58;;;;;;;;;2.75;1.50;;;;;;;;5053490;28;8983;-86
2023/07/31 05:24:25;;;;;;;;;1.00;1.00;;;;;;;;5054193;28;8877;-87
2023/07/31 05:26:54;;;;;;;;;3.00;2.00;;;;;;;;5053265;28;8879;-88
2023/07/31 05:29:21;;;;;;;;;3.00;2.00;;;;;;;;5053612;28;8858;-86
2023/07/31 05:31:49;;;;;;;;;3.50;2.00;;;;;;;;5053403;28;8898;-86
2023/07/31 05:34:16;;;;;;;;;2.75;2.00;;;;;;;;5053829;28;9589;-85
2023/07/31 05:36:43;;;;;;;;;2.00;2.00;;;;;;;;5054202;28;9665;-83
2023/07/31 05:39:10;;;;;;;;;2.00;2.00;;;;;;;;5057581;28;9247;-82
2023/07/31 05:41:38;;;;;;;;;1.75;1.75;;;;;;;;5059114;28;9638;-87
2023/07/31 05:44:06;;;;;;;;;2.00;2.00;;;;;;;;5057788;28;8973;-86
2023/07/31 05:46:34;;;;;;;;;2.75;2.75;;;;;;;;5055547;28;8859;-88
2023/07/31 05:49:01;;;;;;;;;1.50;1.00;;;;;;;;5052537;28;8903;-92
2023/07/31 05:51:29;;;;;;;;;4.50;3.75;;;;;;;;5053506;28;9600;-90
2023/07/31 05:53:56;;;;;;;;;2.00;2.00;;;;;;;;5053756;28;8858;-92
2023/07/31 05:56:23;;;;;;;;;2.50;2.50;;;;;;;;5053964;28;8858;-92
2023/07/31 05:58:54;;;;;;;;;3.00;3.00;;;;;;;;5054550;28;8862;-96
2023/07/31 06:01:23;;;;;;;;;1.00;0.50;;;;;;;;5053849;28;8791;-94
2023/07/31 06:03:50;;;;;;;;;3.00;3.00;;;;;;;;5053517;28;8972;-94
2023/07/31 06:06:17;;;;;;;;;3.25;2.00;;;;;;;;5053751;28;8859;-93
2023/07/31 06:08:44;;;;;;;;;3.75;3.25;;;;;;;;5053430;28;8970;-92
2023/07/31 06:11:12;;;;;;;;;2.50;2.50;;;;;;;;5055545;28;8903;-92
2023/07/31 06:13:39;;;;;;;;;3.50;3.50;;;;;;;;5061549;28;8932;-95
2023/07/31 06:16:06;;;;;;;;;6.00;4.75;;;;;;;;5061417;28;9590;-94
2023/07/31 06:18:35;;;;;;;;;3.00;3.00;;;;;;;;5064500;28;8962;-95
2023/07/31 06:21:03;;;;;;;;;2.50;2.50;;;;;;;;5054689;28;9024;-95
2023/07/31 06:23:30;;;;;;;;;3.00;3.00;;;;;;;;5054496;28;8843;-93
2023/07/31 06:25:57;;;;;;;;;3.25;3.25;;;;;;;;5053146;28;8945;-91
2023/07/31 06:28:29;;;;;;;;;3.75;2.75;;;;;;;;5052217;28;8862;-85
2023/07/31 06:30:57;;;;;;;;;3.00;3.00;;;;;;;;5051958;28;8814;-82
2023/07/31 06:33:24;;;;;;;;;2.75;2.00;;;;;;;;5053013;28;8859;-85
2023/07/31 06:35:53;;;;;;;;;3.00;3.00;;;;;;;;5063295;28;8874;-84
2023/07/31 06:38:22;;;;;;;;;3.00;3.00;;;;;;;;5053773;28;8989;-84
2023/07/31 06:40:50;;;;;;;;;4.50;3.50;;;;;;;;5054619;28;8872;-85
2023/07/31 06:43:17;;;;;;;;;2.75;2.75;;;;;;;;5055810;28;8859;-84
2023/07/31 06:45:45;;;;;;;;;2.50;2.00;;;;;;;;5055066;28;8908;-85
2023/07/31 06:48:12;;;;;;;;;3.00;2.75;;;;;;;;5054479;28;8941;-85
2023/07/31 06:50:39;;;;;;;;;4.00;3.00;;;;;;;;5054239;28;8851;-77
2023/07/31 06:53:08;;;;;;;;;5.00;3.75;;;;;;;;5052446;28;8885;-79
2023/07/31 06:55:35;;;;;;;;;8.00;4.75;;;;;;;;5050889;28;8839;-77
2023/07/31 06:58:03;;;;;;;;;4.00;4.00;;;;;;;;5050484;28;8862;-81
2023/07/31 07:00:30;;;;;;;;;3.00;3.00;;;;;;;;5050874;28;8751;-76
2023/07/31 07:02:58;;;;;;;;;5.25;3.25;;;;;;;;5051044;28;8855;-74
2023/07/31 07:05:25;;;;;;;;;4.50;3.25;;;;;;;;5050317;28;8878;-73
2023/07/31 07:07:52;;;;;;;;;4.00;4.00;;;;;;;;5050544;28;8890;-77
2023/07/31 07:10:21;;;;;;;;;7.75;4.50;;;;;;;;5050789;28;8851;-74
2023/07/31 07:12:48;;;;;;;;;4.75;3.00;;;;;;;;5049927;28;8873;-72
2023/07/31 07:15:16;;;;;;;;;4.25;3.75;;;;;;;;5050186;28;8839;-73
2023/07/31 07:17:43;;;;;;;;;6.75;3.75;;;;;;;;5049849;28;8883;-74
2023/07/31 07:20:10;;;;;;;;;10.25;4.50;;;;;;;;5050712;28;8858;-74
2023/07/31 07:22:37;;;;;;;;;5.75;4.25;;;;;;;;5050732;28;8849;-74
2023/07/31 07:25:05;;;;;;;;;5.25;5.25;;;;;;;;5050081;28;9005;-74
2023/07/31 07:27:34;;;;;;;;;4.25;3.75;;;;;;;;5050602;28;8975;-80
2023/07/31 07:30:01;;;;;;;;;2.40;2.40;;;;;;;;5050403;28;8884;-77
2023/07/31 07:32:28;;;;;;;;;5.00;5.00;;;;;;;;5049999;28;8788;-81
2023/07/31 07:34:57;;;;;;;;;8.75;6.00;;;;;;;;5049676;28;8859;-76
2023/07/31 07:37:24;;;;;;;;;6.00;6.00;;;;;;;;5050012;28;8855;-80
2023/07/31 07:39:51;;;;;;;;;6.25;6.00;;;;;;;;5049630;28;8867;-80
2023/07/31 07:42:20;;;;;;;;;4.75;4.75;;;;;;;;5050805;28;8881;-79
2023/07/31 07:44:48;;;;;;;;;6.25;6.25;;;;;;;;5050064;28;8854;-80
2023/07/31 07:47:16;;;;;;;;;7.20;5.00;;;;;;;;5049561;28;9265;-80
2023/07/31 07:49:43;;;;;;;;;5.40;5.00;;;;;;;;5049386;28;8836;-79
2023/07/31 07:52:10;;;;;;;;;8.50;5.50;;;;;;;;5049340;28;8973;-80
2023/07/31 07:54:37;;;;;;;;;4.00;4.00;;;;;;;;5049544;28;8858;-80
2023/07/31 07:57:05;;;;;;;;;6.00;5.00;;;;;;;;5049350;28;8863;-79
2023/07/31 07:59:32;;;;;;;;;7.20;5.00;;;;;;;;5049401;28;8863;-77
2023/07/31 08:02:01;;;;;;;;;5.60;5.60;;;;;;;;5048682;28;8796;-78
2023/07/31 08:04:28;;;;;;;;;1.80;1.80;;;;;;;;5049468;28;8870;-78
2023/07/31 08:06:55;;;;;;;;;8.40;6.20;;;;;;;;5049462;28;9721;-80
2023/07/31 08:09:23;;;;;;;;;9.25;4.00;;;;;;;;5050191;28;8866;-78
2023/07/31 08:11:50;;;;;;;;;5.60;4.80;;;;;;;;5049692;28;8873;-80
2023/07/31 08:14:17;;;;;;;;;9.00;5.25;;;;;;;;5050534;28;8981;-79
2023/07/31 08:16:44;;;;;;;;;5.00;5.00;;;;;;;;5051909;28;8848;-81
2023/07/31 08:19:13;;;;;;;;;4.60;4.60;;;;;;;;5053088;28;8974;-81
2023/07/31 08:21:40;;;;;;;;;6.80;4.80;;;;;;;;5053085;28;9006;-80
2023/07/31 08:24:08;;;;;;;;;4.00;4.00;;;;;;;;5053302;28;8878;-81
2023/07/31 08:26:35;;;;;;;;;5.80;5.80;;;;;;;;5051652;28;8985;-78
2023/07/31 08:29:02;;;;;;;;;8.00;7.00;;;;;;;;5048789;28;8867;-80
2023/07/31 08:31:30;;;;;;;;;5.20;5.00;;;;;;;;5048629;28;8783;-77
2023/07/31 08:33:57;;;;;;;;;6.00;6.00;;;;;;;;5048405;28;8881;-79
2023/07/31 08:36:26;;;;;;;;;5.20;4.80;;;;;;;;5048993;28;8893;-75
2023/07/31 08:38:53;;;;;;;;;7.00;7.00;;;;;;;;5048630;28;8881;-74
2023/07/31 08:41:20;;;;;;;;;5.40;5.40;;;;;;;;5048400;28;8878;-82
2023/07/31 08:43:48;;;;;;;;;9.20;7.40;;;;;;;;5048079;28;8855;-76
2023/07/31 08:46:15;;;;;;;;;7.60;7.60;;;;;;;;5048479;28;8906;-78
2023/07/31 08:48:44;;;;;;;;;6.00;5.80;;;;;;;;5047740;28;8847;-76
2023/07/31 08:51:11;;;;;;;;;6.00;4.60;;;;;;;;5048474;28;8862;-76
2023/07/31 08:53:39;;;;;;;;;6.40;6.40;;;;;;;;5048896;28;8897;-87
2023/07/31 08:56:07;;;;;;;;;6.80;6.00;;;;;;;;5048378;28;8885;-79
2023/07/31 08:58:36;;;;;;;;;7.80;5.00;;;;;;;;5050038;28;8886;-76
2023/07/31 09:01:06;;;;;;;;;7.20;5.60;;;;;;;;5050180;28;8794;-75
2023/07/31 09:03:36;;;;;;;;;1.80;1.80;;;;;;;;5050727;28;8848;-74
2023/07/31 09:06:05;;;;;;;;;7.60;6.00;;;;;;;;5048573;28;8865;-74
2023/07/31 09:09:34;;;;;;;;;6.00;6.00;;;;;;;;5124278;27;14384;-73
2023/07/31 09:12:01;;;;;;;;;7.80;6.80;;;;;;;;5125691;28;8983;-77
2023/07/31 09:14:28;;;;;;;;;6.00;5.60;;;;;;;;5127482;27;8849;-76
2023/07/31 09:16:58;;;;;;;;;5.20;5.20;;;;;;;;5127267;27;8846;-77
2023/07/31 09:19:30;;;;;;;;;5.00;5.00;;;;;;;;5127737;28;8833;-77
2023/07/31 09:21:57;;;;;;;;;6.40;6.00;;;;;;;;5127240;27;9620;-78
2023/07/31 09:24:29;;;;;;;;;6.00;6.00;;;;;;;;5127257;27;8968;-76
2023/07/31 09:26:59;;;;;;;;;8.00;6.00;;;;;;;;5127253;27;8953;-76
2023/07/31 09:29:27;;;;;;;;;5.20;5.20;;;;;;;;5127156;27;8976;-78
2023/07/31 09:31:54;;;;;;;;;4.20;4.20;;;;;;;;5110529;27;8792;-76
2023/07/31 09:34:29;;;;;;;;;6.00;6.00;;;;;;;;5106776;28;8849;-76
2023/07/31 09:36:58;;;;;;;;;6.00;5.80;;;;;;;;5106354;28;8860;-76
2023/07/31 09:39:26;;;;;;;;;9.80;5.80;;;;;;;;5106606;28;8864;-77
2023/07/31 09:41:57;;;;;;;;;6.20;6.20;;;;;;;;5106213;28;8864;-77
2023/07/31 09:44:39;;;;;;;;;5.60;4.40;;;;;;;;5106260;28;8860;-76
2023/07/31 09:47:06;;;;;;;;;4.60;4.00;;;;;;;;5106484;28;8871;-75
2023/07/31 09:49:34;;;;;;;;;4.40;4.40;;;;;;;;5107445;28;8867;-77
2023/07/31 09:52:01;;;;;;;;;5.00;5.00;;;;;;;;5108053;28;9281;-73
2023/07/31 09:54:28;;;;;;;;;5.00;4.80;;;;;;;;5109127;28;8832;-77
2023/07/31 09:56:57;;;;;;;;;5.00;5.00;;;;;;;;5108258;28;8872;-75
2023/07/31 09:59:25;;;;;;;;;5.80;5.80;;;;;;;;5108089;28;8844;-75
2023/07/31 10:01:55;;;;;;;;;7.80;5.80;;;;;;;;5107513;28;8796;-77
2023/07/31 10:04:30;;;;;;;;;6.20;6.20;;;;;;;;5106315;28;9728;-78
2023/07/31 10:06:57;;;;;;;;;5.60;5.60;;;;;;;;5105803;28;8844;-78
2023/07/31 10:09:27;;;;;;;;;5.60;5.60;;;;;;;;5105306;28;8974;-76
2023/07/31 10:12:01;;;;;;;;;10.00;5.60;;;;;;;;5105262;28;8864;-77
2023/07/31 10:14:28;;;;;;;;;4.80;4.80;;;;;;;;5099450;28;8965;-75
2023/07/31 10:16:55;;;;;;;;;5.80;4.20;;;;;;;;5084816;28;8893;-75
2023/07/31 10:19:23;;;;;;;;;9.20;7.80;;;;;;;;5079683;28;9009;-75
2023/07/31 10:21:50;;;;;;;;;5.20;5.20;;;;;;;;5071481;28;8851;-76
2023/07/31 10:24:17;;;;;;;;;6.00;6.00;;;;;;;;5071650;28;8989;-74
2023/07/31 10:26:47;;;;;;;;;5.20;4.80;;;;;;;;5071040;28;8893;-73
2023/07/31 10:29:17;;;;;;;;;4.60;4.60;;;;;;;;5071184;28;8855;-77
2023/07/31 10:31:45;;;;;;;;;4.80;4.80;;;;;;;;5056530;28;8862;-74
2023/07/31 10:34:12;;;;;;;;;4.80;3.60;;;;;;;;5051556;28;8868;-73
2023/07/31 10:36:40;;;;;;;;;5.40;5.40;;;;;;;;5051345;28;8869;-74
2023/07/31 10:39:36;;;;;;;;;5.00;5.00;;;;;;;;5051084;28;8923;-74
2023/07/31 10:42:12;;;;;;;;;5.40;5.40;;;;;;;;5051402;28;8873;-73
2023/07/31 10:44:46;;;;;;;;;6.40;5.40;;;;;;;;5051502;28;9620;-76
2023/07/31 10:47:17;;;;;;;;;9.00;5.00;;;;;;;;5051297;28;8853;-74
2023/07/31 10:49:47;;;;;;;;;5.60;3.80;;;;;;;;5050597;28;8865;-74
2023/07/31 10:52:15;;;;;;;;;8.40;6.60;;;;;;;;5051192;28;9023;-76
2023/07/31 10:54:42;;;;;;;;;7.60;5.20;;;;;;;;5050538;28;8853;-75
2023/07/31 10:57:20;;;;;;;;;6.60;5.60;;;;;;;;5050745;28;8871;-74
2023/07/31 10:59:50;;;;;;;;;9.20;5.80;;;;;;;;5050820;28;8888;-74
2023/07/31 11:02:29;;;;;;;;;4.80;3.60;;;;;;;;5050695;28;8794;-77
2023/07/31 11:05:08;;;;;;;;;6.80;6.00;;;;;;;;5051161;28;8865;-74
2023/07/31 11:07:48;;;;;;;;;6.40;5.80;;;;;;;;5051137;28;8838;-78
2023/07/31 11:10:18;;;;;;;;;5.00;4.60;;;;;;;;5050814;28;8833;-75
2023/07/31 11:12:47;;;;;;;;;4.60;4.60;;;;;;;;5050460;28;8841;-75
2023/07/31 11:15:15;;;;;;;;;3.50;3.50;;;;;;;;5050401;28;8872;-78
2023/07/31 11:17:43;;;;;;;;;5.00;5.00;;;;;;;;5050827;28;8861;-77
2023/07/31 11:20:11;;;;;;;;;5.50;5.50;;;;;;;;5050476;28;9691;-76
2023/07/31 11:22:38;;;;;;;;;4.40;4.40;;;;;;;;5050763;28;8842;-75
2023/07/31 11:25:06;;;;;;;;;7.25;6.75;;;;;;;;5051466;28;8877;-76
2023/07/31 11:27:41;;;;;;;;;7.00;6.50;;;;;;;;5051245;28;8865;-77
2023/07/31 11:30:09;;;;;;;;;5.00;5.00;;;;;;;;5050559;28;8876;-75
2023/07/31 11:32:39;;;;;;;;;7.25;6.00;;;;;;;;5050457;28;8881;-74
2023/07/31 11:35:08;;;;;;;;;9.25;7.50;;;;;;;;5051912;28;8863;-76
2023/07/31 11:37:41;;;;;;;;;5.50;5.25;;;;;;;;5051045;28;8871;-75
2023/07/31 11:40:09;;;;;;;;;6.50;6.50;;;;;;;;5050867;28;8839;-75
2023/07/31 11:42:39;;;;;;;;;5.00;5.00;;;;;;;;5050396;28;9766;-77
2023/07/31 11:45:07;;;;;;;;;7.00;7.00;;;;;;;;5050567;28;8894;-74
2023/07/31 11:47:35;;;;;;;;;5.25;3.25;;;;;;;;5050389;28;8875;-76
2023/07/31 11:50:05;;;;;;;;;5.50;5.25;;;;;;;;5049864;28;8893;-78
2023/07/31 11:52:35;;;;;;;;;6.75;6.00;;;;;;;;5049724;28;8878;-76
2023/07/31 11:55:02;;;;;;;;;6.50;6.50;;;;;;;;5049668;28;8865;-77
2023/07/31 11:57:30;;;;;;;;;7.25;7.25;;;;;;;;5049373;28;8855;-76
2023/07/31 11:59:59;;;;;;;;;5.50;5.50;;;;;;;;5049621;28;8977;-79
2023/07/31 12:02:26;;;;;;;;;7.50;7.50;;;;;;;;5049227;28;8787;-77
2023/07/31 12:04:53;;;;;;;;;5.25;5.25;;;;;;;;5049686;28;8877;-79
2023/07/31 12:07:22;;;;;;;;;7.50;5.00;;;;;;;;5049974;28;8882;-80
2023/07/31 12:09:53;;;;;;;;;6.25;6.25;;;;;;;;5049283;28;8836;-79
2023/07/31 12:12:25;;;;;;;;;7.00;5.75;;;;;;;;5049660;28;8952;-77
2023/07/31 12:14:52;;;;;;;;;7.00;5.25;;;;;;;;5049423;28;8847;-77
2023/07/31 12:17:21;;;;;;;;;5.75;5.75;;;;;;;;5049769;28;8871;-77
2023/07/31 12:19:50;;;;;;;;;4.00;3.75;;;;;;;;5049248;28;8877;-79
2023/07/31 12:22:18;;;;;;;;;5.25;4.00;;;;;;;;5049499;28;8866;-75
2023/07/31 12:24:47;;;;;;;;;6.75;6.75;;;;;;;;5048856;28;9684;-77
2023/07/31 12:27:15;;;;;;;;;5.75;5.00;;;;;;;;5049192;28;8867;-76
2023/07/31 12:29:44;;;;;;;;;6.50;6.50;;;;;;;;5048795;28;8961;-76
2023/07/31 12:32:24;;;;;;;;;8.00;6.50;;;;;;;;5048776;28;8787;-77
2023/07/31 12:34:52;;;;;;;;;7.50;5.50;;;;;;;;5049246;28;8869;-76
2023/07/31 12:37:19;;;;;;;;;4.50;4.50;;;;;;;;5049360;28;9633;-75
2023/07/31 12:39:47;;;;;;;;;7.25;5.25;;;;;;;;5048832;28;8861;-77
2023/07/31 12:42:15;;;;;;;;;8.50;6.25;;;;;;;;5048728;28;8901;-77
2023/07/31 12:44:42;;;;;;;;;5.25;5.25;;;;;;;;5048779;28;8851;-75
2023/07/31 12:47:09;;;;;;;;;5.50;4.75;;;;;;;;5049791;28;8843;-74
2023/07/31 12:49:36;;;;;;;;;8.00;8.00;;;;;;;;5050896;28;8827;-74
2023/07/31 12:52:04;;;;;;;;;6.75;6.50;;;;;;;;5048970;28;8877;-77
2023/07/31 12:54:31;;;;;;;;;8.00;6.50;;;;;;;;5049175;28;9274;-79
2023/07/31 12:56:59;;;;;;;;;7.50;6.50;;;;;;;;5048907;28;8862;-77
2023/07/31 12:59:27;;;;;;;;;6.67;6.00;;;;;;;;5049305;28;8847;-78
2023/07/31 13:01:54;;;;;;;;;7.00;5.20;;;;;;;;5049126;28;8921;-80
2023/07/31 13:04:21;;;;;;;;;6.40;6.40;;;;;;;;5049403;28;8831;-82
2023/07/31 13:06:48;;;;;;;;;6.20;6.20;;;;;;;;5050093;28;8851;-81
2023/07/31 13:09:17;;;;;;;;;6.80;6.80;;;;;;;;5051050;28;8897;-83
2023/07/31 13:11:44;;;;;;;;;6.80;6.20;;;;;;;;5051388;28;8870;-83
2023/07/31 13:14:13;;;;;;;;;8.80;7.00;;;;;;;;5050100;28;8862;-79
2023/07/31 13:16:40;;;;;;;;;6.60;6.60;;;;;;;;5049597;28;8867;-77
2023/07/31 13:19:07;;;;;;;;;7.80;6.80;;;;;;;;5049148;28;9776;-77
2023/07/31 13:21:36;;;;;;;;;6.25;5.25;;;;;;;;5049029;28;8929;-79
2023/07/31 13:24:04;;;;;;;;;7.25;6.75;;;;;;;;5048604;28;9647;-78
2023/07/31 13:26:34;;;;;;;;;7.60;7.60;;;;;;;;5048769;28;8859;-76
2023/07/31 13:29:01;;;;;;;;;5.00;5.00;;;;;;;;5048504;28;9259;-79
2023/07/31 13:31:29;;;;;;;;;7.00;7.00;;;;;;;;5048042;28;8795;-77
2023/07/31 13:33:57;;;;;;;;;7.00;7.00;;;;;;;;5048461;28;8855;-78
2023/07/31 13:36:25;;;;;;;;;7.75;7.75;;;;;;;;5048868;28;8867;-76
2023/07/31 13:38:52;;;;;;;;;6.80;5.00;;;;;;;;5048395;28;8974;-77
2023/07/31 13:41:19;;;;;;;;;8.00;6.20;;;;;;;;5049690;28;8847;-82
2023/07/31 13:43:46;;;;;;;;;6.20;6.20;;;;;;;;5049272;28;8888;-76
2023/07/31 13:46:13;;;;;;;;;7.80;7.80;;;;;;;;5050451;28;9748;-80
2023/07/31 13:48:42;;;;;;;;;6.80;6.80;;;;;;;;5051711;28;8855;-78
2023/07/31 13:51:09;;;;;;;;;7.20;7.20;;;;;;;;5051291;28;8847;-76
2023/07/31 13:53:36;;;;;;;;;9.00;9.00;;;;;;;;5050178;28;8871;-82
2023/07/31 13:56:03;;;;;;;;;8.80;7.80;;;;;;;;5051864;28;8851;-78
2023/07/31 13:58:31;;;;;;;;;8.60;8.60;;;;;;;;5052411;28;9626;-79
2023/07/31 14:00:58;;;;;;;;;10.00;6.80;;;;;;;;5051703;28;8878;-77
2023/07/31 14:03:25;;;;;;;;;8.00;6.00;;;;;;;;5051862;28;8859;-80
2023/07/31 14:05:55;;;;;;;;;7.80;6.20;;;;;;;;5051939;28;9010;-77
2023/07/31 14:08:22;;;;;;;;;8.00;8.00;;;;;;;;5052261;28;9670;-76
2023/07/31 14:10:49;;;;;;;;;7.40;6.40;;;;;;;;5051626;28;8851;-77
2023/07/31 14:13:17;;;;;;;;;7.40;7.00;;;;;;;;5051979;28;8886;-78
2023/07/31 14:15:44;;;;;;;;;6.00;5.80;;;;;;;;5051884;28;8874;-78
2023/07/31 14:18:11;;;;;;;;;8.20;7.60;;;;;;;;5051594;28;8862;-75
2023/07/31 14:20:38;;;;;;;;;9.80;7.00;;;;;;;;5052289;28;8850;-76
2023/07/31 14:23:07;;;;;;;;;7.80;7.80;;;;;;;;5051544;28;8965;-78
2023/07/31 14:25:34;;;;;;;;;8.00;8.00;;;;;;;;5052274;28;8855;-77
2023/07/31 14:28:02;;;;;;;;;11.20;8.80;;;;;;;;5051800;28;8873;-76
2023/07/31 14:30:29;;;;;;;;;6.80;6.80;;;;;;;;5051305;28;8786;-75
2023/07/31 14:32:56;;;;;;;;;10.50;9.00;;;;;;;;5051073;28;9665;-76
2023/07/31 14:35:24;;;;;;;;;6.00;5.80;;;;;;;;5051856;28;8877;-77
2023/07/31 14:37:51;;;;;;;;;6.00;6.00;;;;;;;;5051686;28;8855;-75
2023/07/31 14:40:20;;;;;;;;;8.20;4.80;;;;;;;;5052672;28;8851;-77
2023/07/31 14:42:47;;;;;;;;;8.40;6.60;;;;;;;;5053060;28;8886;-79
2023/07/31 14:45:14;;;;;;;;;7.60;6.00;;;;;;;;5054389;28;9725;-76
2023/07/31 14:47:42;;;;;;;;;5.00;5.00;;;;;;;;5054061;28;8863;-78
2023/07/31 14:50:10;;;;;;;;;6.60;6.60;;;;;;;;5053094;28;8989;-80
2023/07/31 14:52:37;;;;;;;;;5.00;4.00;;;;;;;;5051599;28;8957;-79
2023/07/31 14:55:05;;;;;;;;;5.60;5.60;;;;;;;;5051524;28;8879;-85
2023/07/31 14:57:34;;;;;;;;;7.00;6.60;;;;;;;;5050941;28;8874;-74
2023/07/31 15:00:01;;;;;;;;;6.00;6.00;;;;;;;;5051096;28;9763;-73
2023/07/31 15:02:28;;;;;;;;;5.00;3.60;;;;;;;;5050035;28;8799;-73